createdAt,value
2023-01-28T00:01:26.086Z,63.01
2023-01-28T00:03:55.489Z,63.71
2023-01-28T00:06:25.095Z,63.23
2023-01-28T00:08:56.969Z,62.93
2023-01-28T00:11:27.349Z,63.98
2023-01-28T00:13:56.824Z,64.44
2023-01-28T00:16:28.384Z,64.01
2023-01-28T00:18:58.190Z,64.08
2023-01-28T00:21:27.671Z,63.90
2023-01-28T00:23:58.735Z,62.85
2023-01-28T00:26:28.444Z,63.65
2023-01-28T00:28:57.546Z,63.45
2023-01-28T00:31:28.945Z,62.81
2023-01-28T00:33:59.031Z,63.77
2023-01-28T00:36:29.234Z,63.12
2023-01-28T00:39:00.649Z,63.32
2023-01-28T00:41:31.780Z,62.60
2023-01-28T00:44:01.264Z,62.81
2023-01-28T00:46:31.380Z,62.23
2023-01-28T00:49:00.945Z,62.77
2023-01-28T00:51:30.096Z,63.06
2023-01-28T00:53:59.812Z,62.87
2023-01-28T00:56:30.147Z,61.99
2023-01-28T00:58:59.681Z,63.21
2023-01-28T01:01:33.359Z,61.75
2023-01-28T01:04:12.947Z,63.89
2023-01-28T01:06:56.712Z,64.69
2023-01-28T01:09:40.243Z,65.13
2023-01-28T01:12:24.485Z,64.85
2023-01-28T01:15:12.614Z,64.92
2023-01-28T01:17:58.145Z,64.33
2023-01-28T01:20:38.424Z,64.77
2023-01-28T01:23:21.146Z,63.89
2023-01-28T01:25:57.513Z,64.12
2023-01-28T01:28:41.077Z,65.70
2023-01-28T01:31:20.399Z,63.98
2023-01-28T01:33:53.043Z,64.38
2023-01-28T01:36:25.161Z,63.63
2023-01-28T01:38:57.770Z,62.73
2023-01-28T01:41:34.825Z,62.54
2023-01-28T01:44:09.703Z,62.35
2023-01-28T01:46:53.235Z,62.86
2023-01-28T01:49:27.714Z,63.06
2023-01-28T01:52:09.159Z,61.97
2023-01-28T01:54:43.977Z,63.01
2023-01-28T01:57:19.754Z,62.47
2023-01-28T01:59:56.228Z,62.54
2023-01-28T02:02:28.893Z,62.29
2023-01-28T02:05:01.384Z,62.06
2023-01-28T02:07:33.886Z,63.47
2023-01-28T02:10:05.786Z,63.86
2023-01-28T02:12:42.740Z,63.82
2023-01-28T02:15:20.964Z,63.77
2023-01-28T02:17:54.631Z,62.95
2023-01-28T02:20:34.939Z,61.10
2023-01-28T02:23:06.474Z,61.65
2023-01-28T02:25:59.155Z,60.82
2023-01-28T02:28:49.360Z,61.50
2023-01-28T02:31:32.783Z,61.97
2023-01-28T02:34:22.116Z,61.74
2023-01-28T02:37:17.808Z,62.87
2023-01-28T02:39:59.880Z,62.88
2023-01-28T02:42:40.095Z,62.49
2023-01-28T02:45:48.188Z,62.17
2023-01-28T02:48:24.291Z,61.96
2023-01-28T02:51:26.101Z,62.21
2023-01-28T02:54:19.058Z,61.77
2023-01-28T02:57:18.599Z,60.22
2023-01-28T02:59:51.588Z,60.43
2023-01-28T03:02:26.017Z,60.62
2023-01-28T03:05:03.516Z,60.63
2023-01-28T03:07:40.993Z,59.66
2023-01-28T03:10:19.471Z,59.89
2023-01-28T03:13:13.752Z,59.82
2023-01-28T03:16:06.955Z,57.98
2023-01-28T03:19:15.798Z,58.56
2023-01-28T03:22:06.544Z,57.23
2023-01-28T03:25:09.633Z,57.92
2023-01-28T03:28:14.827Z,56.40
2023-01-28T03:31:08.521Z,56.58
2023-01-28T03:34:09.422Z,57.06
2023-01-28T03:36:55.451Z,55.87
2023-01-28T03:39:50.570Z,57.24
2023-01-28T03:42:23.764Z,57.19
2023-01-28T03:45:03.660Z,56.17
2023-01-28T03:47:42.234Z,57.28
2023-01-28T03:50:21.735Z,57.33
2023-01-28T03:53:16.350Z,57.84
2023-01-28T03:55:59.420Z,57.86
2023-01-28T03:58:49.382Z,58.20
2023-01-28T04:01:28.545Z,57.88
2023-01-28T04:04:00.481Z,57.55
2023-01-28T04:06:33.220Z,57.75
2023-01-28T04:09:22.988Z,57.54
2023-01-28T04:12:02.717Z,56.31
2023-01-28T04:14:41.655Z,56.69
2023-01-28T04:17:20.024Z,56.13
2023-01-28T04:19:52.037Z,56.65
2023-01-28T04:22:29.599Z,55.45
2023-01-28T04:25:03.677Z,54.91
2023-01-28T04:27:35.068Z,55.17
2023-01-28T04:30:16.210Z,54.17
2023-01-28T04:33:13.689Z,54.49
2023-01-28T04:35:52.700Z,53.92
2023-01-28T04:38:29.240Z,54.63
2023-01-28T04:41:10.068Z,54.39
2023-01-28T04:43:48.103Z,56.17
2023-01-28T04:46:38.527Z,55.17
2023-01-28T04:49:36.150Z,55.19
2023-01-28T04:52:26.035Z,54.78
2023-01-28T04:55:30.310Z,54.34
2023-01-28T04:58:05.314Z,54.55
2023-01-28T05:00:38.542Z,54.38
2023-01-28T05:03:10.679Z,54.72
2023-01-28T05:05:42.693Z,54.14
2023-01-28T05:08:24.176Z,54.73
2023-01-28T05:10:56.609Z,55.17
2023-01-28T05:13:26.976Z,54.90
2023-01-28T05:16:07.083Z,55.27
2023-01-28T05:18:44.834Z,55.51
2023-01-28T05:21:19.302Z,55.49
2023-01-28T05:23:57.059Z,54.50
2023-01-28T05:26:29.093Z,54.61
2023-01-28T05:29:01.183Z,54.45
2023-01-28T05:31:39.284Z,55.24
2023-01-28T05:34:12.877Z,55.53
2023-01-28T05:36:47.143Z,55.26
2023-01-28T05:39:40.535Z,54.27
2023-01-28T05:42:19.098Z,54.56
2023-01-28T05:44:52.528Z,54.48
2023-01-28T05:47:49.015Z,55.06
2023-01-28T05:50:30.276Z,54.78
2023-01-28T05:53:22.375Z,54.94
2023-01-28T05:55:55.439Z,54.44
2023-01-28T05:58:34.403Z,55.05
2023-01-28T06:01:13.692Z,54.51
2023-01-28T06:03:53.818Z,55.22
2023-01-28T06:06:25.564Z,54.82
2023-01-28T06:08:57.561Z,54.36
2023-01-28T06:11:33.143Z,52.66
2023-01-28T06:14:13.144Z,51.92
2023-01-28T06:17:11.930Z,50.86
2023-01-28T06:20:09.675Z,50.78
2023-01-28T06:22:49.213Z,50.66
2023-01-28T06:25:22.099Z,49.79
2023-01-28T06:27:54.145Z,50.24
2023-01-28T06:30:28.388Z,50.73
2023-01-28T06:33:22.790Z,49.86
2023-01-28T06:35:52.075Z,49.67
2023-01-28T06:38:39.508Z,49.22
2023-01-28T06:41:08.674Z,48.96
2023-01-28T06:43:37.529Z,48.27
2023-01-28T06:49:57.404Z,48.58
2023-01-28T07:04:22.087Z,47.66
2023-01-28T07:06:53.933Z,46.62
2023-01-28T07:09:24.385Z,47.52
2023-01-28T07:11:53.851Z,47.63
2023-01-28T07:14:23.045Z,47.28
2023-01-28T07:16:52.997Z,47.41
2023-01-28T07:19:22.362Z,47.46
2023-01-28T07:24:59.851Z,46.15
2023-01-28T07:27:29.465Z,45.12
2023-01-28T07:29:58.429Z,45.05
2023-01-28T07:32:28.827Z,43.81
2023-01-28T07:34:58.443Z,45.45
2023-01-28T07:37:27.345Z,44.17
2023-01-28T07:39:57.032Z,44.73
2023-01-28T07:42:32.241Z,44.89
2023-01-28T07:45:06.558Z,44.85
2023-01-28T07:48:02.849Z,43.05
2023-01-28T07:51:27.887Z,41.49
2023-01-28T07:53:58.995Z,42.20
2023-01-28T07:56:32.598Z,42.60
2023-01-28T07:59:38.538Z,42.05
2023-01-28T08:02:07.896Z,42.27
2023-01-28T08:05:07.899Z,41.33
2023-01-28T08:07:38.001Z,41.45
2023-01-28T08:10:07.888Z,42.19
2023-01-28T08:12:37.498Z,42.66
2023-01-28T08:15:07.699Z,43.16
2023-01-28T08:17:36.950Z,43.05
2023-01-28T08:20:06.676Z,43.84
2023-01-28T08:22:36.174Z,42.69
2023-01-28T08:25:05.408Z,43.76
2023-01-28T08:28:23.788Z,42.20
2023-01-28T08:30:53.529Z,43.47
2023-01-28T08:33:23.370Z,42.34
2023-01-28T08:35:53.189Z,42.94
2023-01-28T08:38:22.901Z,42.96
2023-01-28T08:40:55.359Z,42.75
2023-01-28T08:43:25.095Z,42.71
2023-01-28T08:45:54.578Z,44.19
2023-01-28T08:48:24.482Z,44.11
2023-01-28T08:50:54.036Z,44.42
2023-01-28T08:54:00.447Z,44.06
2023-01-28T08:56:31.515Z,44.56
2023-01-28T08:59:02.995Z,42.97
2023-01-28T09:01:32.917Z,42.38
2023-01-28T09:04:02.512Z,41.25
2023-01-28T09:06:31.763Z,40.68
2023-01-28T09:09:02.078Z,39.96
2023-01-28T09:11:32.224Z,40.21
2023-01-28T09:14:03.925Z,40.78
2023-01-28T09:17:06.086Z,39.67
2023-01-28T09:19:35.929Z,40.43
2023-01-28T09:22:06.875Z,39.53
2023-01-28T09:24:38.831Z,42.14
2023-01-28T09:27:08.991Z,42.20
2023-01-28T09:29:39.823Z,41.90
2023-01-28T09:32:13.329Z,42.62
2023-01-28T09:34:45.643Z,42.77
2023-01-28T09:37:15.813Z,42.87
2023-01-28T09:39:45.991Z,43.75
2023-01-28T09:42:18.377Z,44.57
2023-01-28T09:44:50.567Z,44.42
2023-01-28T09:47:40.845Z,44.72
2023-01-28T09:50:17.914Z,44.99
2023-01-28T09:52:48.290Z,44.72
2023-01-28T09:55:41.063Z,45.74
2023-01-28T09:58:18.785Z,45.39
2023-01-28T10:01:07.406Z,44.78
2023-01-28T10:04:49.797Z,44.48
2023-01-28T10:07:29.678Z,44.68
2023-01-28T10:10:12.237Z,43.95
2023-01-28T10:13:08.874Z,44.39
2023-01-28T10:15:55.787Z,44.96
2023-01-28T10:18:56.724Z,43.58
2023-01-28T10:21:32.469Z,43.95
2023-01-28T10:24:30.564Z,42.32
2023-01-28T10:27:00.375Z,42.43
2023-01-28T10:29:34.678Z,41.67
2023-01-28T10:32:19.029Z,42.06
2023-01-28T10:34:48.378Z,42.16
2023-01-28T10:37:18.205Z,41.43
2023-01-28T10:39:50.983Z,40.95
2023-01-28T10:42:31.252Z,41.28
2023-01-28T10:45:33.173Z,40.95
2023-01-28T10:48:34.751Z,42.57
2023-01-28T10:51:15.484Z,42.86
2023-01-28T10:53:57.442Z,41.64
2023-01-28T10:56:40.002Z,42.82
2023-01-28T10:59:27.105Z,42.13
2023-01-28T11:02:21.770Z,42.47
2023-01-28T11:05:08.455Z,42.73
2023-01-28T11:07:37.953Z,42.35
2023-01-28T11:10:28.869Z,42.30
2023-01-28T11:13:00.263Z,42.24
2023-01-28T11:15:30.462Z,41.78
2023-01-28T11:18:07.520Z,41.89
2023-01-28T11:20:44.718Z,42.12
2023-01-28T11:23:34.522Z,43.41
2023-01-28T11:26:25.908Z,44.75
2023-01-28T11:28:56.664Z,45.45
2023-01-28T11:31:27.463Z,44.53
2023-01-28T11:33:59.980Z,44.04
2023-01-28T11:36:34.753Z,43.41
2023-01-28T11:39:18.629Z,43.90
2023-01-28T11:41:49.025Z,43.32
2023-01-28T11:44:23.176Z,42.69
2023-01-28T11:47:26.709Z,42.76
2023-01-28T11:50:10.587Z,43.20
2023-01-28T11:53:18.372Z,43.93
2023-01-28T11:56:14.768Z,43.92
2023-01-28T11:59:28.142Z,43.62
2023-01-28T12:02:30.009Z,43.79
2023-01-28T12:05:14.095Z,44.63
2023-01-28T12:07:50.237Z,44.75
2023-01-28T12:10:42.435Z,44.06
2023-01-28T12:13:30.401Z,43.58
2023-01-28T12:16:40.603Z,42.88
2023-01-28T12:19:31.880Z,43.72
2023-01-28T12:22:49.636Z,45.43
2023-01-28T12:25:37.725Z,46.13
2023-01-28T12:28:16.315Z,46.45
2023-01-28T12:31:14.961Z,46.39
2023-01-28T12:33:53.168Z,45.59
2023-01-28T12:36:46.417Z,46.57
2023-01-28T12:39:30.462Z,46.52
2023-01-28T12:42:15.745Z,46.78
2023-01-28T12:44:52.503Z,46.94
2023-01-28T12:47:35.310Z,47.55
2023-01-28T12:50:20.102Z,48.04
2023-01-28T12:53:02.621Z,48.41
2023-01-28T12:55:59.087Z,48.43
2023-01-28T12:58:51.371Z,48.81
2023-01-28T13:01:28.200Z,48.90
2023-01-28T13:04:10.858Z,49.71
2023-01-28T13:06:51.777Z,49.47
2023-01-28T13:09:23.578Z,49.87
2023-01-28T13:11:55.869Z,49.79
2023-01-28T13:14:32.547Z,50.96
2023-01-28T13:17:25.983Z,51.17
2023-01-28T13:19:55.755Z,51.67
2023-01-28T13:22:36.134Z,51.50
2023-01-28T13:25:21.013Z,51.89
2023-01-28T13:28:08.217Z,52.36
2023-01-28T13:30:51.029Z,53.22
2023-01-28T13:33:37.571Z,53.22
2023-01-28T13:36:20.343Z,53.90
2023-01-28T13:38:49.793Z,53.54
2023-01-28T13:41:20.375Z,53.84
2023-01-28T13:43:49.583Z,54.54
2023-01-28T13:46:30.557Z,54.81
2023-01-28T13:49:01.762Z,54.66
2023-01-28T13:51:33.126Z,55.13
2023-01-28T13:54:22.514Z,55.26
2023-01-28T13:57:09.636Z,55.45
2023-01-28T13:59:40.083Z,55.51
2023-01-28T14:02:23.371Z,55.88
2023-01-28T14:05:21.293Z,56.10
2023-01-28T14:08:17.940Z,56.67
2023-01-28T14:11:19.235Z,57.87
2023-01-28T14:14:10.396Z,58.54
2023-01-28T14:16:53.223Z,59.51
2023-01-28T14:19:36.151Z,60.00
2023-01-28T14:22:10.568Z,60.45
2023-01-28T14:24:44.089Z,60.55
2023-01-28T14:27:41.760Z,60.43
2023-01-28T14:30:30.724Z,60.17
2023-01-28T14:33:00.650Z,60.03
2023-01-28T14:35:34.306Z,60.92
2023-01-28T14:38:10.442Z,61.12
2023-01-28T14:40:51.320Z,61.73
2023-01-28T14:43:32.779Z,61.96
2023-01-28T14:46:22.100Z,61.92
2023-01-28T14:49:17.670Z,61.72
2023-01-28T14:52:05.557Z,62.06
2023-01-28T14:55:11.921Z,63.10
2023-01-28T14:57:52.479Z,63.09
2023-01-28T15:00:33.698Z,62.88
2023-01-28T15:03:24.206Z,63.10
2023-01-28T15:06:07.994Z,63.10
2023-01-28T15:08:39.414Z,63.29
2023-01-28T15:11:14.328Z,63.73
2023-01-28T15:13:50.847Z,64.23
2023-01-28T15:16:30.009Z,65.37
2023-01-28T15:19:06.915Z,65.44
2023-01-28T15:21:36.827Z,66.00
2023-01-28T15:24:06.316Z,66.43
2023-01-28T15:26:36.231Z,66.45
2023-01-28T15:29:05.604Z,66.25
2023-01-28T15:31:39.971Z,67.29
2023-01-28T15:34:21.307Z,67.11
2023-01-28T15:36:51.554Z,66.82
2023-01-28T15:39:23.788Z,67.34
2023-01-28T15:42:00.910Z,67.97
2023-01-28T15:44:35.705Z,68.21
2023-01-28T15:47:27.682Z,68.12
2023-01-28T15:50:02.898Z,68.16
2023-01-28T15:52:44.359Z,68.84
2023-01-28T15:55:33.127Z,68.86
2023-01-28T15:58:36.251Z,69.36
2023-01-28T16:01:15.730Z,70.60
2023-01-28T16:03:47.437Z,70.55
2023-01-28T16:06:21.323Z,70.60
2023-01-28T16:09:00.031Z,70.58
2023-01-28T16:11:39.551Z,71.10
2023-01-28T16:14:18.705Z,71.08
2023-01-28T16:16:50.263Z,71.10
2023-01-28T16:19:28.461Z,71.44
2023-01-28T16:22:01.146Z,71.25
2023-01-28T16:24:33.461Z,71.13
2023-01-28T16:27:05.789Z,71.51
2023-01-28T16:29:37.290Z,72.06
2023-01-28T16:32:31.748Z,71.99
2023-01-28T16:35:02.881Z,72.94
2023-01-28T16:37:32.979Z,72.89
2023-01-28T16:40:02.860Z,73.12
2023-01-28T16:42:33.683Z,73.31
2023-01-28T16:45:03.287Z,73.25
2023-01-28T16:47:32.505Z,72.84
2023-01-28T16:50:01.793Z,73.90
2023-01-28T16:52:31.056Z,74.17
2023-01-28T16:55:01.029Z,74.83
2023-01-28T16:57:31.270Z,74.82
2023-01-28T17:00:00.745Z,75.54
2023-01-28T17:02:29.770Z,74.68
2023-01-28T17:04:59.110Z,75.36
2023-01-28T17:07:28.203Z,74.87
2023-01-28T17:10:05.689Z,76.10
2023-01-28T17:12:35.601Z,75.74
2023-01-28T17:15:05.230Z,75.56
2023-01-28T17:17:35.078Z,76.13
2023-01-28T17:20:05.913Z,77.13
2023-01-28T17:22:35.307Z,77.04
2023-01-28T17:25:07.641Z,77.12
2023-01-28T17:27:37.579Z,76.83
2023-01-28T17:30:08.044Z,76.90
2023-01-28T17:32:37.967Z,76.97
2023-01-28T17:35:08.026Z,76.67
2023-01-28T17:37:39.431Z,76.08
2023-01-28T17:40:13.400Z,76.35
2023-01-28T17:42:42.708Z,76.68
2023-01-28T17:45:11.925Z,76.34
2023-01-28T17:47:41.186Z,76.67
2023-01-28T17:50:11.037Z,77.07
2023-01-28T17:52:42.104Z,77.30
2023-01-28T17:55:13.141Z,76.90
2023-01-28T17:57:46.332Z,77.30
2023-01-28T18:00:16.526Z,76.79
2023-01-28T18:02:45.553Z,77.36
2023-01-28T18:05:15.656Z,77.55
2023-01-28T18:07:47.095Z,78.37
2023-01-28T18:10:17.852Z,78.01
2023-01-28T18:12:47.596Z,77.98
2023-01-28T18:15:17.081Z,78.32
2023-01-28T18:17:46.722Z,77.37
2023-01-28T18:20:15.991Z,78.80
2023-01-28T18:22:48.100Z,78.21
2023-01-28T18:25:19.758Z,78.61
2023-01-28T18:27:50.297Z,78.93
2023-01-28T18:30:22.175Z,78.89
2023-01-28T18:32:52.340Z,79.00
2023-01-28T18:35:22.004Z,79.40
2023-01-28T18:37:51.460Z,79.64
2023-01-28T18:40:20.787Z,79.19
2023-01-28T18:42:49.955Z,79.17
2023-01-28T18:45:20.729Z,79.97
2023-01-28T18:47:51.962Z,78.67
2023-01-28T18:50:21.484Z,79.22
2023-01-28T18:52:51.074Z,79.58
2023-01-28T18:55:22.403Z,78.91
2023-01-28T18:57:52.077Z,78.47
2023-01-28T19:00:21.343Z,78.51
2023-01-28T19:02:51.104Z,79.68
2023-01-28T19:05:20.656Z,80.45
2023-01-28T19:07:50.353Z,80.00
2023-01-28T19:10:20.851Z,79.59
2023-01-28T19:12:50.804Z,79.17
2023-01-28T19:15:20.063Z,79.66
2023-01-28T19:17:49.746Z,79.20
2023-01-28T19:20:19.694Z,79.46
2023-01-28T19:22:49.312Z,79.62
2023-01-28T19:25:19.739Z,80.38
2023-01-28T19:27:49.073Z,79.50
2023-01-28T19:30:18.570Z,80.05
2023-01-28T19:32:48.137Z,80.17
2023-01-28T19:35:17.544Z,79.69
2023-01-28T19:37:47.740Z,79.75
2023-01-28T19:40:17.281Z,79.94
2023-01-28T19:42:47.001Z,80.06
2023-01-28T19:45:16.329Z,79.78
2023-01-28T19:47:46.099Z,79.76
2023-01-28T19:50:15.630Z,79.58
2023-01-28T19:52:45.188Z,79.82
2023-01-28T19:55:14.974Z,80.52
2023-01-28T19:57:45.789Z,80.80
2023-01-28T20:00:15.641Z,79.79
2023-01-28T20:02:45.162Z,79.99
2023-01-28T20:05:16.498Z,80.82
2023-01-28T20:07:46.140Z,80.39
2023-01-28T20:10:15.470Z,81.17
2023-01-28T20:12:45.431Z,80.56
2023-01-28T20:15:14.807Z,80.21
2023-01-28T20:17:44.415Z,80.07
2023-01-28T20:20:19.518Z,80.80
2023-01-28T20:22:49.237Z,80.76
2023-01-28T20:25:19.109Z,81.03
2023-01-28T20:27:49.463Z,80.55
2023-01-28T20:30:20.819Z,81.19
2023-01-28T20:32:50.288Z,81.17
2023-01-28T20:35:19.337Z,80.91
2023-01-28T20:37:49.394Z,81.38
2023-01-28T20:40:18.960Z,81.22
2023-01-28T20:42:48.375Z,81.39
2023-01-28T20:45:17.566Z,80.91
2023-01-28T20:47:47.226Z,80.81
2023-01-28T20:50:17.345Z,81.20
2023-01-28T20:52:46.989Z,81.42
2023-01-28T20:55:16.520Z,81.44
2023-01-28T20:57:46.206Z,82.24
2023-01-28T21:00:16.309Z,81.85
2023-01-28T21:02:47.033Z,82.47
2023-01-28T21:05:16.859Z,82.42
2023-01-28T21:07:46.244Z,82.09
2023-01-28T21:10:17.807Z,82.44
2023-01-28T21:12:47.690Z,82.34
2023-01-28T21:15:16.958Z,81.50
2023-01-28T21:17:46.525Z,81.63
2023-01-28T21:20:16.049Z,81.02
2023-01-28T21:22:45.683Z,81.58
2023-01-28T21:25:17.010Z,81.60
2023-01-28T21:27:46.217Z,81.69
2023-01-28T21:30:16.461Z,81.52
2023-01-28T21:32:46.848Z,82.00
2023-01-28T21:35:16.376Z,81.61
2023-01-28T21:37:48.784Z,81.45
2023-01-28T21:40:18.842Z,81.71
2023-01-28T21:42:48.730Z,81.42
2023-01-28T21:45:18.202Z,81.93
2023-01-28T21:47:47.337Z,81.93
2023-01-28T21:50:17.534Z,81.01
2023-01-28T21:52:50.472Z,81.11
2023-01-28T21:55:21.266Z,81.26
2023-01-28T21:58:10.467Z,81.19
2023-01-28T22:00:39.999Z,80.22
2023-01-28T22:03:09.497Z,81.17
2023-01-28T22:05:38.860Z,81.98
2023-01-28T22:08:08.157Z,80.21
2023-01-28T22:10:37.476Z,79.53
2023-01-28T22:13:06.936Z,79.85
2023-01-28T22:15:36.687Z,79.37
2023-01-28T22:18:06.066Z,78.84
2023-01-28T22:20:35.747Z,78.92
2023-01-28T22:23:05.220Z,78.92
2023-01-28T22:25:37.189Z,79.20
2023-01-28T22:28:06.933Z,79.26
2023-01-28T22:30:35.998Z,77.75
2023-01-28T22:33:05.313Z,77.71
2023-01-28T22:35:34.593Z,78.22
2023-01-28T22:38:04.002Z,78.29
2023-01-28T22:40:35.555Z,79.50
2023-01-28T22:43:05.154Z,79.14
2023-01-28T22:45:34.266Z,79.24
2023-01-28T22:48:03.788Z,79.33
2023-01-28T22:50:32.920Z,79.88
2023-01-28T22:53:02.161Z,79.73
2023-01-28T22:55:33.606Z,80.20
2023-01-28T22:58:02.971Z,80.05
2023-01-28T23:00:32.114Z,79.82
2023-01-28T23:03:02.383Z,80.41
2023-01-28T23:05:31.805Z,80.25
2023-01-28T23:08:11.317Z,80.45
2023-01-28T23:10:48.260Z,80.30
2023-01-28T23:13:22.889Z,80.55
2023-01-28T23:16:11.508Z,80.55
2023-01-28T23:18:59.180Z,80.52
2023-01-28T23:21:48.019Z,79.31
2023-01-28T23:24:20.800Z,79.35
2023-01-28T23:26:59.553Z,79.74
2023-01-28T23:29:30.857Z,78.95
2023-01-28T23:32:11.200Z,78.90
2023-01-28T23:34:45.530Z,79.71
2023-01-28T23:37:15.333Z,79.67
2023-01-28T23:39:44.934Z,78.97
2023-01-28T23:42:17.095Z,78.55
2023-01-28T23:44:46.892Z,78.27
2023-01-28T23:47:17.209Z,78.74
2023-01-28T23:49:47.057Z,77.97
2023-01-28T23:52:16.639Z,79.15
2023-01-28T23:54:46.006Z,78.63
2023-01-28T23:57:15.656Z,77.77
2023-01-28T23:59:44.649Z,78.35
